sensor_id;sensor_type;location;lat;lon;timestamp;temperature;humidity
24522;DHT22;12680;57.804;12.190;2023-09-18T00:00:06;14.50;99.90
24522;DHT22;12680;57.804;12.190;2023-09-18T00:02:38;14.40;99.90
24522;DHT22;12680;57.804;12.190;2023-09-18T00:05:06;14.40;99.90
24522;DHT22;12680;57.804;12.190;2023-09-18T00:07:33;14.40;99.90
24522;DHT22;12680;57.804;12.190;2023-09-18T00:10:00;14.60;99.90
24522;DHT22;12680;57.804;12.190;2023-09-18T00:12:27;14.40;99.90
24522;DHT22;12680;57.804;12.190;2023-09-18T00:14:54;14.40;99.90
24522;DHT22;12680;57.804;12.190;2023-09-18T00:17:21;14.60;99.90
24522;DHT22;12680;57.804;12.190;2023-09-18T00:19:49;14.30;99.90
24522;DHT22;12680;57.804;12.190;2023-09-18T00:22:18;14.30;99.90
24522;DHT22;12680;57.804;12.190;2023-09-18T00:24:45;14.30;99.90
24522;DHT22;12680;57.804;12.190;2023-09-18T00:27:13;14.30;99.90
24522;DHT22;12680;57.804;12.190;2023-09-18T00:29:40;14.30;99.90
24522;DHT22;12680;57.804;12.190;2023-09-18T00:32:07;15.20;99.90
24522;DHT22;12680;57.804;12.190;2023-09-18T00:34:34;14.20;99.90
24522;DHT22;12680;57.804;12.190;2023-09-18T00:37:01;14.20;99.90
24522;DHT22;12680;57.804;12.190;2023-09-18T00:39:28;14.10;99.90
24522;DHT22;12680;57.804;12.190;2023-09-18T00:41:55;14.10;99.90
24522;DHT22;12680;57.804;12.190;2023-09-18T00:44:22;14.10;99.90
24522;DHT22;12680;57.804;12.190;2023-09-18T00:46:50;14.00;99.90
24522;DHT22;12680;57.804;12.190;2023-09-18T00:49:18;14.00;99.90
24522;DHT22;12680;57.804;12.190;2023-09-18T00:51:45;14.10;99.90
24522;DHT22;12680;57.804;12.190;2023-09-18T00:54:16;16.50;99.90
24522;DHT22;12680;57.804;12.190;2023-09-18T00:56:45;16.50;99.90
24522;DHT22;12680;57.804;12.190;2023-09-18T00:59:13;15.70;99.90
24522;DHT22;12680;57.804;12.190;2023-09-18T01:01:41;14.50;99.90
24522;DHT22;12680;57.804;12.190;2023-09-18T01:04:08;14.80;99.90
24522;DHT22;12680;57.804;12.190;2023-09-18T01:06:36;14.10;99.90
24522;DHT22;12680;57.804;12.190;2023-09-18T01:09:03;15.20;99.90
24522;DHT22;12680;57.804;12.190;2023-09-18T01:17:09;14.90;99.90
24522;DHT22;12680;57.804;12.190;2023-09-18T01:19:43;15.40;99.90
24522;DHT22;12680;57.804;12.190;2023-09-18T01:22:16;14.20;99.90
24522;DHT22;12680;57.804;12.190;2023-09-18T01:24:47;14.20;99.90
24522;DHT22;12680;57.804;12.190;2023-09-18T01:27:16;14.20;99.90
24522;DHT22;12680;57.804;12.190;2023-09-18T01:29:47;14.70;99.90
24522;DHT22;12680;57.804;12.190;2023-09-18T01:32:14;14.20;99.90
24522;DHT22;12680;57.804;12.190;2023-09-18T01:34:49;14.20;99.90
24522;DHT22;12680;57.804;12.190;2023-09-18T01:37:18;14.20;99.90
24522;DHT22;12680;57.804;12.190;2023-09-18T01:39:49;14.20;99.90
24522;DHT22;12680;57.804;12.190;2023-09-18T01:42:17;14.70;99.90
24522;DHT22;12680;57.804;12.190;2023-09-18T01:44:45;14.20;99.90
24522;DHT22;12680;57.804;12.190;2023-09-18T01:47:21;14.20;99.90
24522;DHT22;12680;57.804;12.190;2023-09-18T01:49:53;14.20;99.90
24522;DHT22;12680;57.804;12.190;2023-09-18T01:52:21;14.20;99.90
24522;DHT22;12680;57.804;12.190;2023-09-18T01:54:48;14.20;99.90
24522;DHT22;12680;57.804;12.190;2023-09-18T01:57:15;14.20;99.90
24522;DHT22;12680;57.804;12.190;2023-09-18T01:59:42;15.70;99.90
24522;DHT22;12680;57.804;12.190;2023-09-18T02:02:10;14.30;99.90
24522;DHT22;12680;57.804;12.190;2023-09-18T02:04:49;14.20;99.90
24522;DHT22;12680;57.804;12.190;2023-09-18T02:07:33;14.20;99.90
24522;DHT22;12680;57.804;12.190;2023-09-18T02:10:00;14.20;99.90
24522;DHT22;12680;57.804;12.190;2023-09-18T02:12:27;15.10;99.90
24522;DHT22;12680;57.804;12.190;2023-09-18T02:14:54;14.20;99.90
24522;DHT22;12680;57.804;12.190;2023-09-18T02:17:24;14.30;99.90
24522;DHT22;12680;57.804;12.190;2023-09-18T02:19:54;14.30;99.90
24522;DHT22;12680;57.804;12.190;2023-09-18T02:22:21;14.30;99.90
24522;DHT22;12680;57.804;12.190;2023-09-18T02:24:48;14.30;99.90
24522;DHT22;12680;57.804;12.190;2023-09-18T02:27:15;14.30;99.90
24522;DHT22;12680;57.804;12.190;2023-09-18T02:29:45;14.30;99.90
24522;DHT22;12680;57.804;12.190;2023-09-18T02:32:12;14.40;99.90
24522;DHT22;12680;57.804;12.190;2023-09-18T02:34:39;14.60;99.90
24522;DHT22;12680;57.804;12.190;2023-09-18T02:37:06;14.40;99.90
24522;DHT22;12680;57.804;12.190;2023-09-18T02:39:33;14.30;99.90
24522;DHT22;12680;57.804;12.190;2023-09-18T02:41:59;14.40;99.90
24522;DHT22;12680;57.804;12.190;2023-09-18T02:44:26;14.30;99.90
24522;DHT22;12680;57.804;12.190;2023-09-18T02:46:53;14.30;99.90
24522;DHT22;12680;57.804;12.190;2023-09-18T02:49:20;14.30;99.90
24522;DHT22;12680;57.804;12.190;2023-09-18T02:51:47;15.20;99.90
24522;DHT22;12680;57.804;12.190;2023-09-18T02:54:15;15.10;99.90
24522;DHT22;12680;57.804;12.190;2023-09-18T02:56:42;14.30;99.90
24522;DHT22;12680;57.804;12.190;2023-09-18T02:59:08;14.30;99.90
24522;DHT22;12680;57.804;12.190;2023-09-18T03:01:35;14.30;99.90
24522;DHT22;12680;57.804;12.190;2023-09-18T03:04:05;14.70;99.90
24522;DHT22;12680;57.804;12.190;2023-09-18T03:06:32;14.40;99.90
24522;DHT22;12680;57.804;12.190;2023-09-18T03:08:59;14.40;99.90
24522;DHT22;12680;57.804;12.190;2023-09-18T03:11:26;14.90;99.90
24522;DHT22;12680;57.804;12.190;2023-09-18T03:13:55;14.40;99.90
24522;DHT22;12680;57.804;12.190;2023-09-18T03:16:22;14.40;99.90
24522;DHT22;12680;57.804;12.190;2023-09-18T03:18:49;14.50;99.90
24522;DHT22;12680;57.804;12.190;2023-09-18T03:21:16;14.50;99.90
24522;DHT22;12680;57.804;12.190;2023-09-18T03:23:43;14.50;99.90
24522;DHT22;12680;57.804;12.190;2023-09-18T03:26:10;14.50;99.90
24522;DHT22;12680;57.804;12.190;2023-09-18T03:28:37;14.70;99.90
24522;DHT22;12680;57.804;12.190;2023-09-18T03:31:04;14.50;99.90
24522;DHT22;12680;57.804;12.190;2023-09-18T03:33:34;14.60;99.90
24522;DHT22;12680;57.804;12.190;2023-09-18T03:36:01;15.30;99.90
24522;DHT22;12680;57.804;12.190;2023-09-18T03:38:28;14.60;99.90
24522;DHT22;12680;57.804;12.190;2023-09-18T03:40:59;16.70;99.90
24522;DHT22;12680;57.804;12.190;2023-09-18T03:43:26;14.60;99.90
24522;DHT22;12680;57.804;12.190;2023-09-18T03:45:53;14.60;99.90
24522;DHT22;12680;57.804;12.190;2023-09-18T03:48:20;15.10;99.90
24522;DHT22;12680;57.804;12.190;2023-09-18T03:50:47;16.60;99.90
24522;DHT22;12680;57.804;12.190;2023-09-18T03:53:14;14.70;99.90
24522;DHT22;12680;57.804;12.190;2023-09-18T03:55:41;14.70;99.90
24522;DHT22;12680;57.804;12.190;2023-09-18T03:58:08;14.70;99.90
24522;DHT22;12680;57.804;12.190;2023-09-18T04:00:35;14.70;99.90
24522;DHT22;12680;57.804;12.190;2023-09-18T04:03:03;14.70;99.90
24522;DHT22;12680;57.804;12.190;2023-09-18T04:05:29;14.70;99.90
24522;DHT22;12680;57.804;12.190;2023-09-18T04:07:56;14.70;99.90
24522;DHT22;12680;57.804;12.190;2023-09-18T04:10:23;14.80;99.90
24522;DHT22;12680;57.804;12.190;2023-09-18T04:12:51;14.80;99.90
24522;DHT22;12680;57.804;12.190;2023-09-18T04:15:19;14.80;99.90
24522;DHT22;12680;57.804;12.190;2023-09-18T04:17:47;14.80;99.90
24522;DHT22;12680;57.804;12.190;2023-09-18T04:20:14;14.90;99.90
24522;DHT22;12680;57.804;12.190;2023-09-18T04:22:46;14.80;99.90
24522;DHT22;12680;57.804;12.190;2023-09-18T04:25:17;14.80;99.90
24522;DHT22;12680;57.804;12.190;2023-09-18T04:27:47;14.90;99.90
24522;DHT22;12680;57.804;12.190;2023-09-18T04:30:17;14.80;99.90
24522;DHT22;12680;57.804;12.190;2023-09-18T04:32:46;14.90;99.90
24522;DHT22;12680;57.804;12.190;2023-09-18T04:35:13;14.90;99.90
24522;DHT22;12680;57.804;12.190;2023-09-18T04:37:40;14.90;99.90
24522;DHT22;12680;57.804;12.190;2023-09-18T04:40:08;14.90;99.90
24522;DHT22;12680;57.804;12.190;2023-09-18T04:42:37;14.90;99.90
24522;DHT22;12680;57.804;12.190;2023-09-18T04:45:05;14.90;99.90
24522;DHT22;12680;57.804;12.190;2023-09-18T04:47:35;14.90;99.90
24522;DHT22;12680;57.804;12.190;2023-09-18T04:50:03;15.00;99.90
24522;DHT22;12680;57.804;12.190;2023-09-18T04:52:38;15.00;99.90
24522;DHT22;12680;57.804;12.190;2023-09-18T04:55:08;15.00;99.90
24522;DHT22;12680;57.804;12.190;2023-09-18T04:57:35;16.10;99.90
24522;DHT22;12680;57.804;12.190;2023-09-18T05:00:03;15.00;99.90
24522;DHT22;12680;57.804;12.190;2023-09-18T05:02:43;15.00;99.90
24522;DHT22;12680;57.804;12.190;2023-09-18T05:05:11;15.00;99.90
24522;DHT22;12680;57.804;12.190;2023-09-18T05:07:38;15.10;99.90
24522;DHT22;12680;57.804;12.190;2023-09-18T05:10:06;15.10;99.90
24522;DHT22;12680;57.804;12.190;2023-09-18T05:12:33;15.10;99.90
24522;DHT22;12680;57.804;12.190;2023-09-18T05:15:00;15.10;99.90
24522;DHT22;12680;57.804;12.190;2023-09-18T05:17:44;15.40;99.90
24522;DHT22;12680;57.804;12.190;2023-09-18T05:20:16;15.20;99.90
24522;DHT22;12680;57.804;12.190;2023-09-18T05:22:44;15.20;99.90
24522;DHT22;12680;57.804;12.190;2023-09-18T05:25:12;17.10;99.90
24522;DHT22;12680;57.804;12.190;2023-09-18T05:27:41;15.20;99.90
24522;DHT22;12680;57.804;12.190;2023-09-18T05:30:17;15.20;99.90
24522;DHT22;12680;57.804;12.190;2023-09-18T05:32:44;15.20;99.90
24522;DHT22;12680;57.804;12.190;2023-09-18T05:35:12;15.20;99.90
24522;DHT22;12680;57.804;12.190;2023-09-18T05:37:41;15.30;99.90
24522;DHT22;12680;57.804;12.190;2023-09-18T05:40:10;15.80;99.90
24522;DHT22;12680;57.804;12.190;2023-09-18T05:42:38;15.20;99.90
24522;DHT22;12680;57.804;12.190;2023-09-18T05:45:06;15.20;99.90
24522;DHT22;12680;57.804;12.190;2023-09-18T05:47:33;15.30;99.90
24522;DHT22;12680;57.804;12.190;2023-09-18T05:50:00;15.30;99.90
24522;DHT22;12680;57.804;12.190;2023-09-18T05:52:27;15.50;99.90
24522;DHT22;12680;57.804;12.190;2023-09-18T05:54:54;15.40;99.90
24522;DHT22;12680;57.804;12.190;2023-09-18T05:57:21;15.40;99.90
24522;DHT22;12680;57.804;12.190;2023-09-18T05:59:47;15.40;99.90
24522;DHT22;12680;57.804;12.190;2023-09-18T06:02:14;15.50;99.90
24522;DHT22;12680;57.804;12.190;2023-09-18T06:04:43;15.50;99.90
24522;DHT22;12680;57.804;12.190;2023-09-18T06:07:10;15.50;99.90
24522;DHT22;12680;57.804;12.190;2023-09-18T06:09:37;15.50;99.90
24522;DHT22;12680;57.804;12.190;2023-09-18T06:12:04;15.50;99.90
24522;DHT22;12680;57.804;12.190;2023-09-18T06:14:32;15.50;99.90
24522;DHT22;12680;57.804;12.190;2023-09-18T06:17:01;15.50;99.90
24522;DHT22;12680;57.804;12.190;2023-09-18T06:19:28;15.50;99.90
24522;DHT22;12680;57.804;12.190;2023-09-18T06:21:55;16.80;99.90
24522;DHT22;12680;57.804;12.190;2023-09-18T06:24:22;15.50;99.90
24522;DHT22;12680;57.804;12.190;2023-09-18T06:26:49;15.60;99.90
24522;DHT22;12680;57.804;12.190;2023-09-18T06:29:17;16.70;99.90
24522;DHT22;12680;57.804;12.190;2023-09-18T06:31:44;15.60;99.90
24522;DHT22;12680;57.804;12.190;2023-09-18T06:34:11;16.00;99.90
24522;DHT22;12680;57.804;12.190;2023-09-18T06:36:38;16.90;99.90
24522;DHT22;12680;57.804;12.190;2023-09-18T06:39:05;15.70;99.90
24522;DHT22;12680;57.804;12.190;2023-09-18T06:41:32;16.60;99.90
24522;DHT22;12680;57.804;12.190;2023-09-18T06:44:00;15.80;99.90
24522;DHT22;12680;57.804;12.190;2023-09-18T06:46:30;15.90;99.90
24522;DHT22;12680;57.804;12.190;2023-09-18T06:48:57;15.90;99.90
24522;DHT22;12680;57.804;12.190;2023-09-18T06:51:23;15.90;99.90
24522;DHT22;12680;57.804;12.190;2023-09-18T06:54:08;17.80;99.90
24522;DHT22;12680;57.804;12.190;2023-09-18T06:56:35;16.00;99.90
24522;DHT22;12680;57.804;12.190;2023-09-18T06:59:02;16.80;99.90
24522;DHT22;12680;57.804;12.190;2023-09-18T07:01:29;16.10;99.90
24522;DHT22;12680;57.804;12.190;2023-09-18T07:03:59;16.10;99.90
24522;DHT22;12680;57.804;12.190;2023-09-18T07:06:27;16.20;99.90
24522;DHT22;12680;57.804;12.190;2023-09-18T07:08:54;16.20;99.90
24522;DHT22;12680;57.804;12.190;2023-09-18T07:11:21;16.20;99.90
24522;DHT22;12680;57.804;12.190;2023-09-18T07:13:51;16.40;99.90
24522;DHT22;12680;57.804;12.190;2023-09-18T07:16:18;16.50;99.90
24522;DHT22;12680;57.804;12.190;2023-09-18T07:18:45;16.70;99.90
24522;DHT22;12680;57.804;12.190;2023-09-18T07:21:12;16.60;99.90
24522;DHT22;12680;57.804;12.190;2023-09-18T07:23:40;16.80;99.90
24522;DHT22;12680;57.804;12.190;2023-09-18T07:26:07;16.80;99.90
24522;DHT22;12680;57.804;12.190;2023-09-18T07:28:35;16.80;99.90
24522;DHT22;12680;57.804;12.190;2023-09-18T07:31:06;16.80;99.90
24522;DHT22;12680;57.804;12.190;2023-09-18T07:33:33;16.90;99.90
24522;DHT22;12680;57.804;12.190;2023-09-18T07:36:00;16.90;99.90
24522;DHT22;12680;57.804;12.190;2023-09-18T07:38:27;17.00;99.90
24522;DHT22;12680;57.804;12.190;2023-09-18T07:40:54;17.00;99.90
24522;DHT22;12680;57.804;12.190;2023-09-18T07:43:24;17.20;99.90
24522;DHT22;12680;57.804;12.190;2023-09-18T07:45:53;18.20;99.90
24522;DHT22;12680;57.804;12.190;2023-09-18T07:48:21;17.50;99.90
24522;DHT22;12680;57.804;12.190;2023-09-18T07:50:48;17.60;99.90
24522;DHT22;12680;57.804;12.190;2023-09-18T07:53:18;17.80;99.90
24522;DHT22;12680;57.804;12.190;2023-09-18T07:55:44;18.90;99.90
24522;DHT22;12680;57.804;12.190;2023-09-18T07:58:11;17.90;99.90
24522;DHT22;12680;57.804;12.190;2023-09-18T08:00:38;17.90;99.90
24522;DHT22;12680;57.804;12.190;2023-09-18T08:03:06;17.90;99.90
24522;DHT22;12680;57.804;12.190;2023-09-18T08:05:33;17.90;99.90
24522;DHT22;12680;57.804;12.190;2023-09-18T08:08:00;17.80;99.90
24522;DHT22;12680;57.804;12.190;2023-09-18T08:10:27;17.80;99.90
24522;DHT22;12680;57.804;12.190;2023-09-18T08:12:54;17.90;99.90
24522;DHT22;12680;57.804;12.190;2023-09-18T08:15:21;18.00;99.90
24522;DHT22;12680;57.804;12.190;2023-09-18T08:17:48;18.00;99.90
24522;DHT22;12680;57.804;12.190;2023-09-18T08:20:16;18.10;99.90
24522;DHT22;12680;57.804;12.190;2023-09-18T08:22:44;18.20;99.90
24522;DHT22;12680;57.804;12.190;2023-09-18T08:25:11;18.10;99.90
24522;DHT22;12680;57.804;12.190;2023-09-18T08:27:39;18.20;99.90
24522;DHT22;12680;57.804;12.190;2023-09-18T08:30:12;18.20;99.90
24522;DHT22;12680;57.804;12.190;2023-09-18T08:32:40;18.20;99.90
24522;DHT22;12680;57.804;12.190;2023-09-18T08:35:08;18.20;99.90
24522;DHT22;12680;57.804;12.190;2023-09-18T08:37:35;18.10;99.90
24522;DHT22;12680;57.804;12.190;2023-09-18T08:40:02;18.50;99.90
24522;DHT22;12680;57.804;12.190;2023-09-18T08:42:39;18.00;99.90
24522;DHT22;12680;57.804;12.190;2023-09-18T08:45:09;20.30;99.90
24522;DHT22;12680;57.804;12.190;2023-09-18T08:47:39;17.90;99.90
24522;DHT22;12680;57.804;12.190;2023-09-18T08:50:09;17.90;99.90
24522;DHT22;12680;57.804;12.190;2023-09-18T08:52:37;17.90;99.90
24522;DHT22;12680;57.804;12.190;2023-09-18T08:55:05;17.90;99.90
24522;DHT22;12680;57.804;12.190;2023-09-18T08:57:36;18.00;99.90
24522;DHT22;12680;57.804;12.190;2023-09-18T09:00:05;18.10;99.90
24522;DHT22;12680;57.804;12.190;2023-09-18T09:02:34;18.20;99.90
24522;DHT22;12680;57.804;12.190;2023-09-18T09:05:02;18.30;99.90
24522;DHT22;12680;57.804;12.190;2023-09-18T09:07:29;18.40;99.90
24522;DHT22;12680;57.804;12.190;2023-09-18T09:09:58;19.70;99.90
24522;DHT22;12680;57.804;12.190;2023-09-18T09:12:51;18.60;99.90
24522;DHT22;12680;57.804;12.190;2023-09-18T09:15:22;18.70;99.90
24522;DHT22;12680;57.804;12.190;2023-09-18T09:17:51;18.70;99.90
24522;DHT22;12680;57.804;12.190;2023-09-18T09:20:18;18.80;99.90
24522;DHT22;12680;57.804;12.190;2023-09-18T09:22:45;19.70;99.90
24522;DHT22;12680;57.804;12.190;2023-09-18T09:25:26;18.90;99.90
24522;DHT22;12680;57.804;12.190;2023-09-18T09:27:54;18.90;99.90
24522;DHT22;12680;57.804;12.190;2023-09-18T09:30:23;18.90;99.90
24522;DHT22;12680;57.804;12.190;2023-09-18T09:32:52;18.90;99.90
24522;DHT22;12680;57.804;12.190;2023-09-18T09:35:21;18.90;99.90
24522;DHT22;12680;57.804;12.190;2023-09-18T09:37:50;18.90;99.90
24522;DHT22;12680;57.804;12.190;2023-09-18T09:40:23;18.90;99.90
24522;DHT22;12680;57.804;12.190;2023-09-18T09:42:54;18.90;99.90
24522;DHT22;12680;57.804;12.190;2023-09-18T09:45:31;19.30;99.90
24522;DHT22;12680;57.804;12.190;2023-09-18T09:48:04;19.50;99.90
24522;DHT22;12680;57.804;12.190;2023-09-18T09:50:35;18.70;99.90
24522;DHT22;12680;57.804;12.190;2023-09-18T09:53:12;18.70;99.90
24522;DHT22;12680;57.804;12.190;2023-09-18T09:55:41;18.60;99.90
24522;DHT22;12680;57.804;12.190;2023-09-18T09:58:09;18.70;99.90
24522;DHT22;12680;57.804;12.190;2023-09-18T10:00:42;18.80;99.90
24522;DHT22;12680;57.804;12.190;2023-09-18T10:03:11;18.70;99.90
24522;DHT22;12680;57.804;12.190;2023-09-18T10:05:44;18.90;99.90
24522;DHT22;12680;57.804;12.190;2023-09-18T10:08:25;19.00;99.90
24522;DHT22;12680;57.804;12.190;2023-09-18T10:10:56;19.00;99.90
24522;DHT22;12680;57.804;12.190;2023-09-18T10:13:41;19.10;99.90
24522;DHT22;12680;57.804;12.190;2023-09-18T10:16:11;19.10;99.90
24522;DHT22;12680;57.804;12.190;2023-09-18T10:18:55;19.90;99.90
24522;DHT22;12680;57.804;12.190;2023-09-18T10:21:53;19.30;99.90
24522;DHT22;12680;57.804;12.190;2023-09-18T10:24:33;19.40;99.90
24522;DHT22;12680;57.804;12.190;2023-09-18T10:27:04;19.50;99.90
24522;DHT22;12680;57.804;12.190;2023-09-18T10:29:34;19.60;99.90
24522;DHT22;12680;57.804;12.190;2023-09-18T10:32:05;19.60;99.90
24522;DHT22;12680;57.804;12.190;2023-09-18T10:34:35;19.70;99.90
24522;DHT22;12680;57.804;12.190;2023-09-18T10:37:04;19.70;99.90
24522;DHT22;12680;57.804;12.190;2023-09-18T10:39:36;20.50;99.90
24522;DHT22;12680;57.804;12.190;2023-09-18T10:42:05;19.90;99.90
24522;DHT22;12680;57.804;12.190;2023-09-18T10:44:34;19.80;99.90
24522;DHT22;12680;57.804;12.190;2023-09-18T10:47:03;19.90;99.90
24522;DHT22;12680;57.804;12.190;2023-09-18T10:49:33;19.90;99.90
24522;DHT22;12680;57.804;12.190;2023-09-18T10:52:01;19.90;99.90
24522;DHT22;12680;57.804;12.190;2023-09-18T10:54:31;20.00;99.90
24522;DHT22;12680;57.804;12.190;2023-09-18T10:56:58;20.10;99.90
24522;DHT22;12680;57.804;12.190;2023-09-18T10:59:27;20.40;99.90
24522;DHT22;12680;57.804;12.190;2023-09-18T11:01:55;20.20;99.90
24522;DHT22;12680;57.804;12.190;2023-09-18T11:04:23;20.20;99.90
24522;DHT22;12680;57.804;12.190;2023-09-18T11:09:22;20.20;99.90
24522;DHT22;12680;57.804;12.190;2023-09-18T11:14:57;20.00;99.90
24522;DHT22;12680;57.804;12.190;2023-09-18T11:22:40;20.00;99.90
24522;DHT22;12680;57.804;12.190;2023-09-18T11:25:34;20.10;99.90
24522;DHT22;12680;57.804;12.190;2023-09-18T11:28:02;19.90;99.90
24522;DHT22;12680;57.804;12.190;2023-09-18T11:30:29;19.90;99.90
24522;DHT22;12680;57.804;12.190;2023-09-18T11:32:56;19.90;99.90
24522;DHT22;12680;57.804;12.190;2023-09-18T11:35:25;19.90;99.90
24522;DHT22;12680;57.804;12.190;2023-09-18T11:38:09;19.90;99.90
24522;DHT22;12680;57.804;12.190;2023-09-18T11:40:38;19.90;99.90
24522;DHT22;12680;57.804;12.190;2023-09-18T11:45:54;19.90;99.90
24522;DHT22;12680;57.804;12.190;2023-09-18T11:48:24;20.00;99.90
24522;DHT22;12680;57.804;12.190;2023-09-18T11:50:52;20.00;99.90
24522;DHT22;12680;57.804;12.190;2023-09-18T11:53:21;20.30;99.90
24522;DHT22;12680;57.804;12.190;2023-09-18T11:55:49;22.10;99.90
24522;DHT22;12680;57.804;12.190;2023-09-18T11:58:16;20.10;99.90
24522;DHT22;12680;57.804;12.190;2023-09-18T12:00:43;20.40;99.90
24522;DHT22;12680;57.804;12.190;2023-09-18T12:03:20;20.20;99.90
24522;DHT22;12680;57.804;12.190;2023-09-18T12:05:55;20.20;99.90
24522;DHT22;12680;57.804;12.190;2023-09-18T12:08:23;20.20;99.90
24522;DHT22;12680;57.804;12.190;2023-09-18T12:10:54;20.10;99.90
24522;DHT22;12680;57.804;12.190;2023-09-18T12:13:21;20.00;99.90
24522;DHT22;12680;57.804;12.190;2023-09-18T12:15:49;20.00;99.90
24522;DHT22;12680;57.804;12.190;2023-09-18T12:18:16;20.00;99.90
24522;DHT22;12680;57.804;12.190;2023-09-18T12:20:47;20.00;99.90
24522;DHT22;12680;57.804;12.190;2023-09-18T12:23:16;20.90;99.90
24522;DHT22;12680;57.804;12.190;2023-09-18T12:25:57;20.10;99.90
24522;DHT22;12680;57.804;12.190;2023-09-18T12:28:25;20.10;99.90
24522;DHT22;12680;57.804;12.190;2023-09-18T12:30:54;20.90;99.90
24522;DHT22;12680;57.804;12.190;2023-09-18T12:33:23;20.30;99.90
24522;DHT22;12680;57.804;12.190;2023-09-18T12:35:51;20.20;99.90
24522;DHT22;12680;57.804;12.190;2023-09-18T12:38:18;20.10;99.90
24522;DHT22;12680;57.804;12.190;2023-09-18T12:40:49;20.00;99.90
24522;DHT22;12680;57.804;12.190;2023-09-18T12:43:17;20.00;99.90
24522;DHT22;12680;57.804;12.190;2023-09-18T12:45:44;19.90;99.90
24522;DHT22;12680;57.804;12.190;2023-09-18T12:48:13;19.90;99.90
24522;DHT22;12680;57.804;12.190;2023-09-18T12:50:41;19.80;99.90
24522;DHT22;12680;57.804;12.190;2023-09-18T12:53:13;19.80;99.90
24522;DHT22;12680;57.804;12.190;2023-09-18T12:55:41;19.70;99.90
24522;DHT22;12680;57.804;12.190;2023-09-18T12:58:12;19.70;99.90
24522;DHT22;12680;57.804;12.190;2023-09-18T13:00:47;20.50;99.90
24522;DHT22;12680;57.804;12.190;2023-09-18T13:03:16;19.70;99.90
24522;DHT22;12680;57.804;12.190;2023-09-18T13:05:44;20.30;99.90
24522;DHT22;12680;57.804;12.190;2023-09-18T13:08:11;21.10;99.90
24522;DHT22;12680;57.804;12.190;2023-09-18T13:10:48;19.80;99.90
24522;DHT22;12680;57.804;12.190;2023-09-18T13:13:20;19.80;99.90
24522;DHT22;12680;57.804;12.190;2023-09-18T13:15:50;19.80;99.90
24522;DHT22;12680;57.804;12.190;2023-09-18T13:18:22;19.90;99.90
24522;DHT22;12680;57.804;12.190;2023-09-18T13:20:51;19.90;99.90
24522;DHT22;12680;57.804;12.190;2023-09-18T13:23:19;19.90;99.90
24522;DHT22;12680;57.804;12.190;2023-09-18T13:25:48;20.00;99.90
24522;DHT22;12680;57.804;12.190;2023-09-18T13:28:15;20.00;99.90
24522;DHT22;12680;57.804;12.190;2023-09-18T13:30:44;20.20;99.90
24522;DHT22;12680;57.804;12.190;2023-09-18T13:33:12;21.20;99.90
24522;DHT22;12680;57.804;12.190;2023-09-18T13:35:41;20.50;99.90
24522;DHT22;12680;57.804;12.190;2023-09-18T13:38:09;20.50;99.90
24522;DHT22;12680;57.804;12.190;2023-09-18T13:40:41;20.60;99.90
24522;DHT22;12680;57.804;12.190;2023-09-18T13:43:09;20.60;99.90
24522;DHT22;12680;57.804;12.190;2023-09-18T13:45:36;20.60;99.90
24522;DHT22;12680;57.804;12.190;2023-09-18T13:48:04;20.60;99.90
24522;DHT22;12680;57.804;12.190;2023-09-18T13:50:32;20.50;99.90
24522;DHT22;12680;57.804;12.190;2023-09-18T13:53:00;20.50;99.90
24522;DHT22;12680;57.804;12.190;2023-09-18T13:55:30;21.20;99.90
24522;DHT22;12680;57.804;12.190;2023-09-18T13:57:57;20.30;99.90
24522;DHT22;12680;57.804;12.190;2023-09-18T14:00:24;20.30;99.90
24522;DHT22;12680;57.804;12.190;2023-09-18T14:02:52;20.30;99.90
24522;DHT22;12680;57.804;12.190;2023-09-18T14:05:19;20.20;99.90
24522;DHT22;12680;57.804;12.190;2023-09-18T14:07:47;20.40;99.90
24522;DHT22;12680;57.804;12.190;2023-09-18T14:10:14;20.00;99.90
24522;DHT22;12680;57.804;12.190;2023-09-18T14:12:43;20.10;99.90
24522;DHT22;12680;57.804;12.190;2023-09-18T14:15:10;19.90;99.90
24522;DHT22;12680;57.804;12.190;2023-09-18T14:17:37;19.90;99.90
24522;DHT22;12680;57.804;12.190;2023-09-18T14:20:05;21.10;99.90
24522;DHT22;12680;57.804;12.190;2023-09-18T14:22:36;19.80;99.90
24522;DHT22;12680;57.804;12.190;2023-09-18T14:25:04;19.80;99.90
24522;DHT22;12680;57.804;12.190;2023-09-18T14:27:33;19.80;99.90
24522;DHT22;12680;57.804;12.190;2023-09-18T14:30:03;19.70;99.90
24522;DHT22;12680;57.804;12.190;2023-09-18T14:32:35;19.70;99.90
24522;DHT22;12680;57.804;12.190;2023-09-18T14:35:04;19.70;99.90
24522;DHT22;12680;57.804;12.190;2023-09-18T14:37:31;19.60;99.90
24522;DHT22;12680;57.804;12.190;2023-09-18T14:39:58;19.60;99.90
24522;DHT22;12680;57.804;12.190;2023-09-18T14:42:25;20.30;99.90
24522;DHT22;12680;57.804;12.190;2023-09-18T14:44:53;19.50;99.90
24522;DHT22;12680;57.804;12.190;2023-09-18T14:47:20;19.50;99.90
24522;DHT22;12680;57.804;12.190;2023-09-18T14:49:49;19.60;99.90
24522;DHT22;12680;57.804;12.190;2023-09-18T14:52:16;19.50;99.90
24522;DHT22;12680;57.804;12.190;2023-09-18T14:54:43;19.50;99.90
24522;DHT22;12680;57.804;12.190;2023-09-18T14:57:10;20.00;99.90
24522;DHT22;12680;57.804;12.190;2023-09-18T14:59:37;20.50;99.90
24522;DHT22;12680;57.804;12.190;2023-09-18T15:02:19;19.50;99.90
24522;DHT22;12680;57.804;12.190;2023-09-18T15:04:45;19.50;99.90
24522;DHT22;12680;57.804;12.190;2023-09-18T15:07:14;19.60;99.90
24522;DHT22;12680;57.804;12.190;2023-09-18T15:09:41;19.50;99.90
24522;DHT22;12680;57.804;12.190;2023-09-18T15:12:08;19.60;99.90
24522;DHT22;12680;57.804;12.190;2023-09-18T15:14:36;19.60;99.90
24522;DHT22;12680;57.804;12.190;2023-09-18T15:17:03;19.60;99.90
24522;DHT22;12680;57.804;12.190;2023-09-18T15:19:30;19.60;99.90
24522;DHT22;12680;57.804;12.190;2023-09-18T15:21:58;19.60;99.90
24522;DHT22;12680;57.804;12.190;2023-09-18T15:24:25;19.60;99.90
24522;DHT22;12680;57.804;12.190;2023-09-18T15:26:52;19.60;99.90
24522;DHT22;12680;57.804;12.190;2023-09-18T15:29:19;19.60;99.90
24522;DHT22;12680;57.804;12.190;2023-09-18T15:31:46;19.60;99.90
24522;DHT22;12680;57.804;12.190;2023-09-18T15:34:14;20.10;99.90
24522;DHT22;12680;57.804;12.190;2023-09-18T15:36:41;19.60;99.90
24522;DHT22;12680;57.804;12.190;2023-09-18T15:39:07;19.60;99.90
24522;DHT22;12680;57.804;12.190;2023-09-18T15:41:36;19.60;99.90
24522;DHT22;12680;57.804;12.190;2023-09-18T15:44:05;19.60;99.90